Time;durP1;ratioP1;P1;durP2;ratioP2;P2;SDS_P1;SDS_P2;PMS_P1;PMS_P2;Temp;Humidity;BMP_temperature;BMP_pressure;BME280_temperature;BME280_humidity;BME280_pressure;Samples;Min_cycle;Max_cycle;Signal;HPM_P1;HPM_P2
2022/04/19 00:01:10;;;;;;;13.37;8.33;;;;;;;;;;5017775;28;20407;-81
2022/04/19 00:03:36;;;;;;;14.38;8.52;;;;;;;;;;5015081;28;20436;-83
2022/04/19 00:06:04;;;;;;;12.25;8.00;;;;;;;;;;5014637;28;20435;-82
2022/04/19 00:08:30;;;;;;;11.43;7.85;;;;;;;;;;5017171;28;20430;-83
2022/04/19 00:10:57;;;;;;;13.40;8.57;;;;;;;;;;5031816;22;20470;-75
2022/04/19 00:13:23;;;;;;;12.53;8.53;;;;;;;;;;5015323;28;21037;-77
2022/04/19 00:15:49;;;;;;;16.73;9.15;;;;;;;;;;5015428;28;20437;-77
2022/04/19 00:18:15;;;;;;;11.70;8.32;;;;;;;;;;5014537;28;20458;-76
2022/04/19 00:20:43;;;;;;;11.00;7.75;;;;;;;;;;5017702;28;20560;-77
2022/04/19 00:23:13;;;;;;;12.10;8.37;;;;;;;;;;5011768;28;20518;-77
2022/04/19 00:25:40;;;;;;;14.10;8.88;;;;;;;;;;5015189;28;20431;-77
2022/04/19 00:28:06;;;;;;;12.63;7.70;;;;;;;;;;5011466;28;20442;-77
2022/04/19 00:30:32;;;;;;;15.43;8.70;;;;;;;;;;5013081;28;20502;-77
2022/04/19 00:32:58;;;;;;;15.07;9.18;;;;;;;;;;5010057;28;20487;-78
2022/04/19 00:35:26;;;;;;;11.82;7.75;;;;;;;;;;5015615;28;20552;-77
2022/04/19 00:37:53;;;;;;;11.27;8.00;;;;;;;;;;5012190;28;20446;-77
2022/04/19 00:40:20;;;;;;;12.53;8.00;;;;;;;;;;5011289;28;20467;-77
2022/04/19 00:42:47;;;;;;;10.90;7.80;;;;;;;;;;5013309;28;20422;-77
2022/04/19 00:45:13;;;;;;;13.50;8.35;;;;;;;;;;5014130;28;20428;-77
2022/04/19 00:47:39;;;;;;;12.07;8.30;;;;;;;;;;5011562;28;20437;-77
2022/04/19 00:50:07;;;;;;;12.77;8.70;;;;;;;;;;5010075;28;20493;-77
2022/04/19 00:52:35;;;;;;;12.55;8.40;;;;;;;;;;5007431;28;20495;-75
2022/04/19 00:55:01;;;;;;;13.90;8.67;;;;;;;;;;5011944;28;20496;-76
2022/04/19 00:57:29;;;;;;;13.80;8.73;;;;;;;;;;5012533;28;21242;-77
2022/04/19 00:59:58;;;;;;;15.23;8.63;;;;;;;;;;5013327;28;20457;-77
2022/04/19 01:02:25;;;;;;;11.23;7.97;;;;;;;;;;5011511;28;20513;-77
2022/04/19 01:04:52;;;;;;;12.60;8.43;;;;;;;;;;5011246;28;20436;-77
2022/04/19 01:07:19;;;;;;;11.82;8.45;;;;;;;;;;5011836;28;20436;-77
2022/04/19 01:09:46;;;;;;;11.60;8.25;;;;;;;;;;5009048;28;20433;-78
2022/04/19 01:14:57;;;;;;;9.80;7.43;;;;;;;;;;5010782;28;20440;-77
2022/04/19 01:17:25;;;;;;;15.05;8.85;;;;;;;;;;5013790;28;20433;-78
2022/04/19 01:19:51;;;;;;;11.02;7.80;;;;;;;;;;5005984;28;20933;-75
2022/04/19 01:22:18;;;;;;;11.63;8.00;;;;;;;;;;5013266;28;20432;-76
2022/04/19 01:24:45;;;;;;;10.50;7.40;;;;;;;;;;5014913;28;20439;-76
2022/04/19 01:27:13;;;;;;;12.70;8.43;;;;;;;;;;5014859;28;20427;-77
2022/04/19 01:29:40;;;;;;;11.90;8.60;;;;;;;;;;5010211;28;20612;-77
2022/04/19 01:32:07;;;;;;;11.90;7.90;;;;;;;;;;5011199;28;20854;-77
2022/04/19 01:34:34;;;;;;;12.68;7.82;;;;;;;;;;5014064;28;20427;-77
2022/04/19 01:37:00;;;;;;;12.10;8.07;;;;;;;;;;5010681;28;20440;-76
2022/04/19 01:42:11;;;;;;;13.18;7.97;;;;;;;;;;5009095;28;20801;-77
2022/04/19 01:44:38;;;;;;;10.98;7.57;;;;;;;;;;5005012;28;20968;-77
2022/04/19 01:47:05;;;;;;;10.27;6.75;;;;;;;;;;5008045;28;20438;-77
2022/04/19 01:49:32;;;;;;;10.20;7.88;;;;;;;;;;5007770;28;20516;-77
2022/04/19 01:51:58;;;;;;;8.00;7.18;;;;;;;;;;5012680;28;20419;-77
2022/04/19 01:54:24;;;;;;;9.65;7.22;;;;;;;;;;5011392;28;20440;-77
2022/04/19 01:56:52;;;;;;;11.90;7.50;;;;;;;;;;5010166;28;20423;-77
2022/04/19 01:59:18;;;;;;;9.55;7.47;;;;;;;;;;5008552;28;20451;-77
2022/04/19 02:01:44;;;;;;;11.00;8.10;;;;;;;;;;5005244;28;20421;-74
2022/04/19 02:04:10;;;;;;;12.88;7.70;;;;;;;;;;5014122;28;20428;-77
2022/04/19 02:06:36;;;;;;;11.03;7.60;;;;;;;;;;5013504;28;20423;-77
2022/04/19 02:09:03;;;;;;;9.50;7.60;;;;;;;;;;5015168;28;20474;-77
2022/04/19 02:11:29;;;;;;;9.60;7.70;;;;;;;;;;5015892;28;20517;-77
2022/04/19 02:13:57;;;;;;;10.18;7.60;;;;;;;;;;5013542;28;20437;-77
2022/04/19 02:16:23;;;;;;;12.55;7.47;;;;;;;;;;5010522;28;20419;-77
2022/04/19 02:18:49;;;;;;;10.45;7.70;;;;;;;;;;5009390;28;20436;-77
2022/04/19 02:21:15;;;;;;;10.70;7.77;;;;;;;;;;5012528;28;20423;-77
2022/04/19 02:23:42;;;;;;;11.68;7.63;;;;;;;;;;5007674;28;20496;-77
2022/04/19 02:26:08;;;;;;;11.18;7.80;;;;;;;;;;5012804;28;20407;-77
2022/04/19 02:28:34;;;;;;;10.75;7.88;;;;;;;;;;5012641;28;20479;-77
2022/04/19 02:31:02;;;;;;;11.70;7.90;;;;;;;;;;5009092;28;20428;-76
2022/04/19 02:33:28;;;;;;;10.00;7.40;;;;;;;;;;5009997;28;20425;-78
2022/04/19 02:35:55;;;;;;;11.18;7.75;;;;;;;;;;5013494;28;20519;-78
2022/04/19 02:38:22;;;;;;;11.23;8.03;;;;;;;;;;5011712;28;20991;-78
2022/04/19 02:40:48;;;;;;;11.32;8.10;;;;;;;;;;5008690;28;20614;-76
2022/04/19 02:43:15;;;;;;;11.07;7.38;;;;;;;;;;5011229;28;20432;-76
2022/04/19 02:45:42;;;;;;;9.88;7.75;;;;;;;;;;5009691;28;20430;-77
2022/04/19 02:48:11;;;;;;;10.18;7.43;;;;;;;;;;5009122;28;20428;-77
2022/04/19 02:50:40;;;;;;;11.40;7.55;;;;;;;;;;5010564;28;20511;-77
2022/04/19 02:53:07;;;;;;;12.15;7.68;;;;;;;;;;5011210;28;20486;-77
2022/04/19 02:55:33;;;;;;;9.90;7.68;;;;;;;;;;5006211;28;20439;-78
2022/04/19 02:58:00;;;;;;;11.02;7.55;;;;;;;;;;5010029;28;20439;-75
2022/04/19 03:00:26;;;;;;;11.18;7.57;;;;;;;;;;5006781;28;20472;-78
2022/04/19 03:02:52;;;;;;;12.60;7.88;;;;;;;;;;5013850;28;20478;-77
2022/04/19 03:05:20;;;;;;;9.48;7.47;;;;;;;;;;5014058;28;20815;-76
2022/04/19 03:07:47;;;;;;;9.10;7.43;;;;;;;;;;5011100;28;20938;-76
2022/04/19 03:10:14;;;;;;;10.27;7.82;;;;;;;;;;5014795;28;20522;-76
2022/04/19 03:12:40;;;;;;;10.13;7.00;;;;;;;;;;5011338;28;20575;-77
2022/04/19 03:15:06;;;;;;;11.20;7.40;;;;;;;;;;5012372;28;20432;-77
2022/04/19 03:17:34;;;;;;;11.00;7.90;;;;;;;;;;5016476;28;20431;-77
2022/04/19 03:20:01;;;;;;;10.27;7.80;;;;;;;;;;5015350;28;20816;-77
2022/04/19 03:27:41;;;;;;;9.45;6.88;;;;;;;;;;5012263;28;20840;-77
2022/04/19 03:27:59;;;;;;;10.60;7.72;;;;;;;;;;5013979;28;20441;-75
2022/04/19 03:30:25;;;;;;;9.93;6.95;;;;;;;;;;5011596;28;20433;-77
2022/04/19 03:32:53;;;;;;;10.02;6.80;;;;;;;;;;5012141;28;20422;-77
2022/04/19 03:35:19;;;;;;;9.55;7.40;;;;;;;;;;5017543;28;20936;-77
2022/04/19 03:37:47;;;;;;;9.60;7.20;;;;;;;;;;5015738;28;20427;-76
2022/04/19 03:40:14;;;;;;;10.67;7.70;;;;;;;;;;5015857;28;20497;-74
2022/04/19 03:42:41;;;;;;;11.00;6.68;;;;;;;;;;5009012;28;20422;-78
2022/04/19 03:45:08;;;;;;;10.50;6.60;;;;;;;;;;5010530;28;20432;-76
2022/04/19 03:47:35;;;;;;;9.48;6.70;;;;;;;;;;5014154;28;20419;-77
2022/04/19 03:50:01;;;;;;;10.35;7.28;;;;;;;;;;5015331;28;20917;-76
2022/04/19 03:52:28;;;;;;;9.00;7.25;;;;;;;;;;5014522;28;20851;-77
2022/04/19 03:54:55;;;;;;;10.13;7.10;;;;;;;;;;5014912;28;20481;-76
2022/04/19 03:57:22;;;;;;;8.70;7.00;;;;;;;;;;5008330;28;20920;-76
2022/04/19 03:59:48;;;;;;;9.30;6.85;;;;;;;;;;5010850;28;20549;-76
2022/04/19 04:02:15;;;;;;;8.40;6.78;;;;;;;;;;5009040;28;20863;-76
2022/04/19 04:04:41;;;;;;;8.80;6.80;;;;;;;;;;5013175;28;20941;-76
2022/04/19 04:07:09;;;;;;;9.25;6.68;;;;;;;;;;5012830;28;20435;-77
2022/04/19 04:09:35;;;;;;;7.82;6.32;;;;;;;;;;5013839;28;20440;-76
2022/04/19 04:12:03;;;;;;;8.60;6.77;;;;;;;;;;5015401;28;20419;-77
2022/04/19 04:14:30;;;;;;;8.40;6.90;;;;;;;;;;5017297;28;20415;-77
2022/04/19 04:16:56;;;;;;;9.60;7.07;;;;;;;;;;5011375;28;20488;-76
2022/04/19 04:19:22;;;;;;;9.00;7.05;;;;;;;;;;5013147;28;20438;-77
2022/04/19 04:21:49;;;;;;;8.43;6.80;;;;;;;;;;5014025;28;20431;-76
2022/04/19 04:24:15;;;;;;;7.85;6.70;;;;;;;;;;5014965;28;20439;-77
2022/04/19 04:26:41;;;;;;;10.75;7.32;;;;;;;;;;5008563;28;20424;-76
2022/04/19 04:29:09;;;;;;;11.05;7.50;;;;;;;;;;5013415;28;20508;-76
2022/04/19 04:31:35;;;;;;;7.97;6.90;;;;;;;;;;5002098;28;20441;-76
2022/04/19 04:34:02;;;;;;;9.13;6.77;;;;;;;;;;5018173;28;20512;-76
2022/04/19 04:36:28;;;;;;;8.00;6.70;;;;;;;;;;5015512;28;20542;-77
2022/04/19 04:38:54;;;;;;;8.20;6.40;;;;;;;;;;5010888;28;20428;-76
2022/04/19 04:41:20;;;;;;;10.07;7.10;;;;;;;;;;5013991;28;20770;-76
2022/04/19 04:43:47;;;;;;;9.70;7.05;;;;;;;;;;5013563;28;20482;-76
2022/04/19 04:51:42;;;;;;;8.73;6.90;;;;;;;;;;5009825;28;20432;-76
2022/04/19 04:54:08;;;;;;;7.05;6.00;;;;;;;;;;5015897;28;20467;-78
2022/04/19 04:56:34;;;;;;;9.63;6.65;;;;;;;;;;5011669;28;20436;-77
2022/04/19 04:59:01;;;;;;;7.78;6.20;;;;;;;;;;5010303;28;20812;-78
2022/04/19 05:01:28;;;;;;;8.85;6.35;;;;;;;;;;5008752;28;20994;-77
2022/04/19 05:03:54;;;;;;;7.63;6.68;;;;;;;;;;5012633;28;20439;-77
2022/04/19 05:06:21;;;;;;;9.45;6.78;;;;;;;;;;5013804;28;20428;-78
2022/04/19 05:08:47;;;;;;;7.68;6.20;;;;;;;;;;5014736;28;20409;-78
2022/04/19 05:11:15;;;;;;;7.60;5.88;;;;;;;;;;5012354;28;20420;-77
2022/04/19 05:13:41;;;;;;;7.25;6.40;;;;;;;;;;5014687;28;20431;-77
2022/04/19 05:16:08;;;;;;;7.13;6.40;;;;;;;;;;5011734;28;20413;-78
2022/04/19 05:18:35;;;;;;;6.80;6.10;;;;;;;;;;5009368;28;20430;-78
2022/04/19 05:21:02;;;;;;;7.80;6.80;;;;;;;;;;5011360;28;20520;-78
2022/04/19 05:23:28;;;;;;;7.32;6.13;;;;;;;;;;5011804;28;20489;-77
2022/04/19 05:25:54;;;;;;;8.27;6.30;;;;;;;;;;5013100;28;20428;-76
2022/04/19 05:28:20;;;;;;;7.97;6.45;;;;;;;;;;5013487;28;20431;-78
2022/04/19 05:30:47;;;;;;;9.97;7.30;;;;;;;;;;5006276;28;20430;-78
2022/04/19 05:33:13;;;;;;;7.82;6.28;;;;;;;;;;5005818;28;20439;-78
2022/04/19 05:35:40;;;;;;;6.80;5.72;;;;;;;;;;5009053;28;20505;-77
2022/04/19 05:38:07;;;;;;;8.23;6.60;;;;;;;;;;5008791;28;20524;-78
2022/04/19 05:40:33;;;;;;;7.05;5.80;;;;;;;;;;5008307;28;20442;-78
2022/04/19 05:42:59;;;;;;;8.15;5.93;;;;;;;;;;5015164;28;20419;-78
2022/04/19 05:45:26;;;;;;;7.35;5.80;;;;;;;;;;5011395;28;20434;-78
2022/04/19 05:47:52;;;;;;;8.63;5.88;;;;;;;;;;5005930;28;20434;-78
2022/04/19 05:50:18;;;;;;;6.50;5.15;;;;;;;;;;5015831;28;20858;-78
2022/04/19 05:52:46;;;;;;;5.95;5.15;;;;;;;;;;5012244;28;20481;-75
2022/04/19 05:55:12;;;;;;;8.63;6.22;;;;;;;;;;5015327;28;20894;-78
2022/04/19 05:57:38;;;;;;;7.38;5.53;;;;;;;;;;5014096;28;20423;-78
2022/04/19 06:00:05;;;;;;;7.65;5.25;;;;;;;;;;5010494;28;20445;-78
2022/04/19 06:05:15;;;;;;;6.10;5.18;;;;;;;;;;5014597;28;20426;-78
2022/04/19 06:07:46;;;;;;;6.77;5.30;;;;;;;;;;5008413;28;20436;-78
2022/04/19 06:10:14;;;;;;;5.57;5.00;;;;;;;;;;5013419;28;20432;-78
2022/04/19 06:12:40;;;;;;;6.65;5.30;;;;;;;;;;5028560;22;20454;-81
2022/04/19 06:15:06;;;;;;;6.20;4.70;;;;;;;;;;5019783;28;20928;-81
2022/04/19 06:17:35;;;;;;;6.22;4.38;;;;;;;;;;5021187;28;20474;-81
2022/04/19 06:20:01;;;;;;;6.50;4.80;;;;;;;;;;5020741;28;20465;-80
2022/04/19 06:22:27;;;;;;;8.00;4.55;;;;;;;;;;5018184;28;20415;-81
2022/04/19 06:24:56;;;;;;;5.20;4.43;;;;;;;;;;5017276;28;20473;-80
2022/04/19 06:27:22;;;;;;;6.38;4.40;;;;;;;;;;5020797;28;20844;-81
2022/04/19 06:29:50;;;;;;;5.10;4.40;;;;;;;;;;5016822;28;20465;-80
2022/04/19 06:32:16;;;;;;;6.18;3.90;;;;;;;;;;5015251;28;20430;-81
2022/04/19 06:34:42;;;;;;;5.72;3.85;;;;;;;;;;5019493;28;20463;-80
2022/04/19 06:37:09;;;;;;;4.55;3.90;;;;;;;;;;5022202;28;20492;-81
2022/04/19 06:39:35;;;;;;;5.78;3.40;;;;;;;;;;5027534;28;20458;-81
2022/04/19 06:42:03;;;;;;;4.00;3.60;;;;;;;;;;5023616;28;20424;-82
2022/04/19 06:44:29;;;;;;;5.10;3.10;;;;;;;;;;5022855;28;20439;-81
2022/04/19 06:46:55;;;;;;;4.18;3.40;;;;;;;;;;5023870;28;20873;-81
2022/04/19 06:49:21;;;;;;;5.70;3.38;;;;;;;;;;5021026;28;20438;-81
2022/04/19 06:51:49;;;;;;;2.70;2.50;;;;;;;;;;5022373;28;20478;-80
2022/04/19 06:54:16;;;;;;;4.10;3.00;;;;;;;;;;5023261;28;20506;-81
2022/04/19 06:56:42;;;;;;;3.42;2.30;;;;;;;;;;5024181;28;20422;-81
2022/04/19 06:59:09;;;;;;;3.75;2.60;;;;;;;;;;5022214;28;20441;-81
2022/04/19 07:01:37;;;;;;;3.90;2.53;;;;;;;;;;5024524;28;20830;-80
2022/04/19 07:04:04;;;;;;;4.03;2.85;;;;;;;;;;5023691;28;20991;-81
2022/04/19 07:06:30;;;;;;;5.00;3.17;;;;;;;;;;5022223;28;20417;-81
2022/04/19 07:08:56;;;;;;;4.75;2.70;;;;;;;;;;5023251;28;20430;-81
2022/04/19 07:11:23;;;;;;;4.13;2.40;;;;;;;;;;5023088;28;20702;-82
2022/04/19 07:13:49;;;;;;;4.70;2.70;;;;;;;;;;5019988;28;20432;-80
2022/04/19 07:16:16;;;;;;;3.85;2.53;;;;;;;;;;5024666;28;20932;-81
2022/04/19 07:18:42;;;;;;;2.90;2.23;;;;;;;;;;5024012;28;20509;-81
2022/04/19 07:26:40;;;;;;;3.30;2.60;;;;;;;;;;5019273;28;20424;-81
2022/04/19 07:29:07;;;;;;;3.47;2.80;;;;;;;;;;5019981;28;20443;-81
2022/04/19 07:31:35;;;;;;;5.60;2.53;;;;;;;;;;5019522;28;20433;-80
2022/04/19 07:34:01;;;;;;;4.00;2.40;;;;;;;;;;5023219;28;20433;-81
2022/04/19 07:36:28;;;;;;;2.80;2.42;;;;;;;;;;5022373;28;20423;-81
2022/04/19 07:38:54;;;;;;;2.90;2.57;;;;;;;;;;5014338;28;20526;-81
2022/04/19 07:41:21;;;;;;;4.60;2.85;;;;;;;;;;5021687;28;20423;-81
2022/04/19 07:43:48;;;;;;;3.47;2.40;;;;;;;;;;5018428;28;20439;-80
2022/04/19 07:46:15;;;;;;;6.73;2.90;;;;;;;;;;5022347;28;20419;-82
2022/04/19 07:48:42;;;;;;;3.88;3.10;;;;;;;;;;5022456;28;20420;-81
2022/04/19 07:51:09;;;;;;;3.63;2.90;;;;;;;;;;5022679;28;20415;-81
2022/04/19 07:53:35;;;;;;;2.70;2.50;;;;;;;;;;5021533;28;20938;-81
2022/04/19 07:56:02;;;;;;;3.58;2.50;;;;;;;;;;5018292;28;20434;-81
2022/04/19 07:58:29;;;;;;;3.78;2.50;;;;;;;;;;5019206;28;21021;-82
2022/04/19 08:00:55;;;;;;;3.35;2.33;;;;;;;;;;5020935;28;20418;-81
2022/04/19 08:03:21;;;;;;;3.30;1.83;;;;;;;;;;5021501;28;20746;-82
2022/04/19 08:05:50;;;;;;;2.25;2.00;;;;;;;;;;5016982;28;21026;-82
2022/04/19 08:08:17;;;;;;;3.15;2.30;;;;;;;;;;5021327;28;20456;-81
2022/04/19 08:10:44;;;;;;;2.90;2.40;;;;;;;;;;5018987;28;20434;-79
2022/04/19 08:13:10;;;;;;;3.53;2.13;;;;;;;;;;5018087;28;20438;-81
2022/04/19 08:15:36;;;;;;;3.17;2.67;;;;;;;;;;5021899;28;20470;-82
2022/04/19 08:18:03;;;;;;;2.22;2.03;;;;;;;;;;5020626;28;20420;-78
2022/04/19 08:20:29;;;;;;;2.75;2.40;;;;;;;;;;5019287;28;20609;-81
2022/04/19 08:22:56;;;;;;;2.97;2.50;;;;;;;;;;5016208;28;20435;-81
2022/04/19 08:25:23;;;;;;;2.85;2.50;;;;;;;;;;5020150;28;20840;-82
2022/04/19 08:27:49;;;;;;;2.80;2.20;;;;;;;;;;5018626;28;20421;-81
2022/04/19 08:30:16;;;;;;;4.70;2.70;;;;;;;;;;5016433;28;20806;-81
2022/04/19 08:32:42;;;;;;;3.20;2.80;;;;;;;;;;5019067;28;20419;-82
2022/04/19 08:35:09;;;;;;;3.42;2.70;;;;;;;;;;5021859;28;20425;-82
2022/04/19 08:37:36;;;;;;;3.72;3.10;;;;;;;;;;5016925;28;20426;-82
2022/04/19 08:40:04;;;;;;;2.70;2.40;;;;;;;;;;5019100;28;20424;-81
2022/04/19 08:42:31;;;;;;;2.53;2.33;;;;;;;;;;5019446;28;20481;-81
2022/04/19 08:44:57;;;;;;;3.50;2.45;;;;;;;;;;5018228;28;20430;-82
2022/04/19 08:47:24;;;;;;;2.77;2.40;;;;;;;;;;5020624;28;20493;-81
2022/04/19 08:49:53;;;;;;;4.97;2.60;;;;;;;;;;5018578;28;20526;-81
2022/04/19 08:52:20;;;;;;;3.33;2.38;;;;;;;;;;5018750;28;20487;-82
2022/04/19 08:57:31;;;;;;;2.50;2.00;;;;;;;;;;5022247;28;20499;-82
2022/04/19 08:59:58;;;;;;;3.50;2.50;;;;;;;;;;5016857;28;20438;-82
2022/04/19 09:02:28;;;;;;;2.20;2.00;;;;;;;;;;5021431;28;20420;-81
2022/04/19 09:04:54;;;;;;;2.60;2.38;;;;;;;;;;5024145;28;20406;-82
2022/04/19 09:07:21;;;;;;;4.80;2.50;;;;;;;;;;5015538;28;20423;-82
2022/04/19 09:09:57;;;;;;;3.88;2.60;;;;;;;;;;5017170;28;20951;-81
2022/04/19 09:12:23;;;;;;;3.05;2.22;;;;;;;;;;5016776;28;20474;-82
2022/04/19 09:14:56;;;;;;;3.83;2.80;;;;;;;;;;5017067;28;20440;-81
2022/04/19 09:17:30;;;;;;;2.83;2.53;;;;;;;;;;5017567;28;20435;-82
2022/04/19 09:20:07;;;;;;;4.90;2.73;;;;;;;;;;5012007;28;20961;-82
2022/04/19 09:22:33;;;;;;;3.70;3.13;;;;;;;;;;5015573;28;20789;-81
2022/04/19 09:25:13;;;;;;;3.83;3.20;;;;;;;;;;5017745;28;20794;-82
2022/04/19 09:27:39;;;;;;;4.28;3.22;;;;;;;;;;5016810;28;20411;-82
2022/04/19 09:30:16;;;;;;;4.35;3.40;;;;;;;;;;5015118;28;20468;-81
2022/04/19 09:32:42;;;;;;;3.75;3.13;;;;;;;;;;5015459;28;20425;-81
2022/04/19 09:35:08;;;;;;;4.03;3.10;;;;;;;;;;5013122;28;20436;-81
2022/04/19 09:37:34;;;;;;;5.10;3.75;;;;;;;;;;5015882;28;20483;-81
2022/04/19 09:40:01;;;;;;;5.68;3.75;;;;;;;;;;5015572;28;20803;-81
2022/04/19 09:42:27;;;;;;;5.00;4.07;;;;;;;;;;5018955;28;20849;-82
2022/04/19 09:44:53;;;;;;;5.82;4.10;;;;;;;;;;5018764;28;20432;-81
2022/04/19 09:47:22;;;;;;;5.20;4.00;;;;;;;;;;5020678;28;20469;-82
2022/04/19 09:49:49;;;;;;;6.18;4.35;;;;;;;;;;4988184;28;21795;-81
2022/04/19 09:52:36;;;;;;;5.17;4.13;;;;;;;;;;5018135;28;20423;-82
2022/04/19 09:55:03;;;;;;;5.10;3.95;;;;;;;;;;5018649;28;20451;-81
2022/04/19 09:57:31;;;;;;;5.23;4.40;;;;;;;;;;5017140;28;20982;-82
2022/04/19 09:59:59;;;;;;;5.70;4.10;;;;;;;;;;5016512;28;20512;-81
2022/04/19 10:10:40;;;;;;;7.78;4.50;;;;;;;;;;5017460;28;20482;-82
2022/04/19 10:13:06;;;;;;;5.03;4.45;;;;;;;;;;5020106;28;20854;-83
2022/04/19 10:15:33;;;;;;;7.20;4.68;;;;;;;;;;5016428;28;20832;-82
2022/04/19 10:18:01;;;;;;;6.97;4.60;;;;;;;;;;5018207;28;20435;-81
2022/04/19 10:20:31;;;;;;;7.60;4.65;;;;;;;;;;5008383;28;20487;-82
2022/04/19 10:23:01;;;;;;;5.72;4.45;;;;;;;;;;5017532;28;20419;-82
2022/04/19 10:25:34;;;;;;;7.30;5.05;;;;;;;;;;5021111;28;20489;-82
2022/04/19 10:28:03;;;;;;;6.38;4.35;;;;;;;;;;5015964;28;20427;-83
2022/04/19 10:30:32;;;;;;;5.07;4.40;;;;;;;;;;5018083;28;20444;-83
2022/04/19 10:32:58;;;;;;;5.75;4.70;;;;;;;;;;5018659;28;20419;-82
2022/04/19 10:35:26;;;;;;;7.07;4.90;;;;;;;;;;5020050;28;20513;-82
2022/04/19 10:38:07;;;;;;;7.13;5.00;;;;;;;;;;5013421;28;20816;-82
2022/04/19 10:40:48;;;;;;;5.70;4.45;;;;;;;;;;5020241;28;20963;-82
2022/04/19 10:43:15;;;;;;;5.88;4.65;;;;;;;;;;5018631;28;20993;-82
2022/04/19 10:45:41;;;;;;;5.85;4.68;;;;;;;;;;5016029;28;20472;-82
2022/04/19 10:48:08;;;;;;;7.30;4.53;;;;;;;;;;5018450;28;20459;-82
2022/04/19 10:50:39;;;;;;;6.28;4.20;;;;;;;;;;5018369;28;20419;-82
2022/04/19 10:53:06;;;;;;;5.85;3.78;;;;;;;;;;5017042;28;20425;-82
2022/04/19 10:55:33;;;;;;;8.27;4.43;;;;;;;;;;5014647;28;20436;-83
2022/04/19 10:58:16;;;;;;;5.63;4.43;;;;;;;;;;5017090;28;20442;-79
2022/04/19 11:00:43;;;;;;;6.85;4.90;;;;;;;;;;5018918;28;20428;-82
2022/04/19 11:03:10;;;;;;;5.88;4.20;;;;;;;;;;5018178;28;20419;-82
2022/04/19 11:05:41;;;;;;;4.78;4.25;;;;;;;;;;5019464;28;20487;-81
2022/04/19 11:08:31;;;;;;;7.53;5.25;;;;;;;;;;5014597;28;20435;-81
2022/04/19 11:11:20;;;;;;;6.60;4.70;;;;;;;;;;5020213;28;20460;-82
2022/04/19 11:14:07;;;;;;;6.78;4.82;;;;;;;;;;5015668;28;20440;-82
2022/04/19 11:16:37;;;;;;;5.47;4.32;;;;;;;;;;5019774;28;20884;-82
2022/04/19 11:19:13;;;;;;;8.27;5.25;;;;;;;;;;5018728;28;20936;-82
2022/04/19 11:21:52;;;;;;;6.53;5.30;;;;;;;;;;5018795;28;20421;-81
2022/04/19 11:24:37;;;;;;;7.57;5.30;;;;;;;;;;5022504;28;20416;-82
2022/04/19 11:27:03;;;;;;;8.95;5.90;;;;;;;;;;5018429;28;20453;-82
2022/04/19 11:29:46;;;;;;;7.03;5.10;;;;;;;;;;5021205;28;20427;-82
2022/04/19 11:32:12;;;;;;;7.07;5.50;;;;;;;;;;5019901;28;20946;-81
2022/04/19 11:34:38;;;;;;;8.93;6.05;;;;;;;;;;5023746;28;20415;-82
2022/04/19 11:37:06;;;;;;;6.30;4.78;;;;;;;;;;5020608;28;20427;-82
2022/04/19 11:47:53;;;;;;;7.15;5.15;;;;;;;;;;5020589;28;20542;-81
2022/04/19 11:50:25;;;;;;;7.20;5.57;;;;;;;;;;5022323;28;20416;-82
2022/04/19 11:52:52;;;;;;;7.07;6.30;;;;;;;;;;5019817;28;20479;-81
2022/04/19 11:55:20;;;;;;;6.70;5.60;;;;;;;;;;5020723;28;20451;-82
2022/04/19 11:57:46;;;;;;;6.07;5.00;;;;;;;;;;5020765;28;20423;-83
2022/04/19 12:00:17;;;;;;;7.40;6.30;;;;;;;;;;5016975;28;20535;-82
2022/04/19 12:02:44;;;;;;;10.50;6.03;;;;;;;;;;5022039;28;20854;-79
2022/04/19 12:05:23;;;;;;;8.77;6.50;;;;;;;;;;5019559;28;20415;-81
2022/04/19 12:07:50;;;;;;;8.90;6.70;;;;;;;;;;5017593;28;20419;-83
2022/04/19 12:10:18;;;;;;;8.65;6.28;;;;;;;;;;5014148;28;20436;-83
2022/04/19 12:15:39;;;;;;;8.13;6.20;;;;;;;;;;5020230;28;20457;-79
2022/04/19 12:18:06;;;;;;;11.35;6.10;;;;;;;;;;5023701;28;20489;-79
2022/04/19 12:20:41;;;;;;;7.00;6.30;;;;;;;;;;5027068;28;20480;-79
2022/04/19 12:23:16;;;;;;;9.07;6.40;;;;;;;;;;5023057;28;20486;-80
2022/04/19 12:25:43;;;;;;;7.25;5.95;;;;;;;;;;5023006;28;20425;-80
2022/04/19 12:28:10;;;;;;;7.30;6.60;;;;;;;;;;5022000;28;20439;-80
2022/04/19 12:30:46;;;;;;;7.00;6.30;;;;;;;;;;5023018;28;20435;-80
2022/04/19 12:33:14;;;;;;;6.90;6.20;;;;;;;;;;5022457;28;20473;-79
2022/04/19 12:35:41;;;;;;;7.20;6.50;;;;;;;;;;5022211;28;20448;-80
2022/04/19 12:38:08;;;;;;;7.43;6.72;;;;;;;;;;5021780;28;20429;-80
2022/04/19 12:40:34;;;;;;;7.03;6.32;;;;;;;;;;5024944;28;20433;-79
2022/04/19 12:43:02;;;;;;;8.55;7.22;;;;;;;;;;5022644;28;20423;-80
2022/04/19 12:45:31;;;;;;;7.65;6.63;;;;;;;;;;5024250;28;20436;-79
2022/04/19 12:48:00;;;;;;;7.82;6.97;;;;;;;;;;5022389;28;20443;-80
2022/04/19 12:50:27;;;;;;;9.10;7.10;;;;;;;;;;5023709;28;20425;-80
2022/04/19 12:52:53;;;;;;;10.13;7.90;;;;;;;;;;5023416;28;20448;-80
2022/04/19 12:55:27;;;;;;;6.88;6.18;;;;;;;;;;5022754;28;20521;-81
2022/04/19 12:58:07;;;;;;;8.07;6.15;;;;;;;;;;5023963;28;20429;-79
2022/04/19 13:00:34;;;;;;;8.90;6.10;;;;;;;;;;5022069;28;20443;-80
2022/04/19 13:03:00;;;;;;;8.30;6.70;;;;;;;;;;5023285;28;20490;-81
2022/04/19 13:12:16;;;;;;;9.23;6.70;;;;;;;;;;5022336;28;20501;-79
2022/04/19 13:13:41;;;;;;;8.80;6.77;;;;;;;;;;5012168;28;20808;-79
2022/04/19 13:16:08;;;;;;;9.43;6.80;;;;;;;;;;5014761;28;20467;-80
2022/04/19 13:18:34;;;;;;;8.32;7.25;;;;;;;;;;5016995;28;20428;-79
2022/04/19 13:21:00;;;;;;;8.57;6.85;;;;;;;;;;5021663;28;20934;-80
2022/04/19 13:23:26;;;;;;;9.02;7.00;;;;;;;;;;5022549;28;20830;-79
2022/04/19 13:25:53;;;;;;;6.88;6.00;;;;;;;;;;5023918;28;20550;-80
2022/04/19 13:28:22;;;;;;;6.65;5.10;;;;;;;;;;5022572;28;20491;-80
2022/04/19 13:30:49;;;;;;;6.10;4.68;;;;;;;;;;5022535;28;20469;-80
2022/04/19 13:33:15;;;;;;;4.75;4.00;;;;;;;;;;5021348;28;20449;-79
2022/04/19 13:35:42;;;;;;;5.38;3.85;;;;;;;;;;5021683;28;20432;-80
2022/04/19 13:38:26;;;;;;;4.57;3.50;;;;;;;;;;5020780;28;20431;-80
2022/04/19 13:40:53;;;;;;;4.97;3.83;;;;;;;;;;5022540;28;20429;-80
2022/04/19 13:43:19;;;;;;;5.77;4.07;;;;;;;;;;5021980;28;20465;-80
2022/04/19 13:45:47;;;;;;;5.00;3.88;;;;;;;;;;5023061;28;20516;-79
2022/04/19 13:48:14;;;;;;;4.18;3.22;;;;;;;;;;5021160;28;20405;-79
2022/04/19 13:50:40;;;;;;;3.92;3.13;;;;;;;;;;5023145;28;20478;-79
2022/04/19 13:53:07;;;;;;;4.40;3.20;;;;;;;;;;5019500;28;20439;-80
2022/04/19 13:55:33;;;;;;;5.20;3.22;;;;;;;;;;5021752;28;20487;-80
2022/04/19 13:57:59;;;;;;;5.03;3.00;;;;;;;;;;5018871;28;20427;-78
2022/04/19 14:00:27;;;;;;;4.65;3.10;;;;;;;;;;5020278;28;20446;-80
2022/04/19 14:02:54;;;;;;;6.15;3.20;;;;;;;;;;5021734;28;20423;-80
2022/04/19 14:05:22;;;;;;;5.60;3.10;;;;;;;;;;5022048;28;20428;-79
2022/04/19 14:07:48;;;;;;;5.15;3.28;;;;;;;;;;5018414;28;20427;-80
2022/04/19 14:10:14;;;;;;;3.17;2.55;;;;;;;;;;5020451;28;20930;-80
2022/04/19 14:12:41;;;;;;;3.20;2.90;;;;;;;;;;5021128;28;20442;-81
2022/04/19 14:15:07;;;;;;;3.33;2.60;;;;;;;;;;5018210;28;20444;-80
2022/04/19 14:17:34;;;;;;;5.72;2.75;;;;;;;;;;5018323;28;20460;-81
2022/04/19 14:20:00;;;;;;;5.72;2.70;;;;;;;;;;5021525;28;20437;-79
2022/04/19 14:22:27;;;;;;;2.92;2.35;;;;;;;;;;5022200;28;20420;-80
2022/04/19 14:24:55;;;;;;;5.35;2.60;;;;;;;;;;5021333;28;20561;-79
2022/04/19 14:27:21;;;;;;;3.38;2.40;;;;;;;;;;5021934;28;20765;-80
2022/04/19 14:35:15;;;;;;;4.38;2.42;;;;;;;;;;5026117;28;20427;-80
2022/04/19 14:37:43;;;;;;;4.60;2.40;;;;;;;;;;5022565;28;20411;-81
2022/04/19 14:40:09;;;;;;;4.47;2.90;;;;;;;;;;5018448;28;20435;-80
2022/04/19 14:42:35;;;;;;;4.50;2.60;;;;;;;;;;5020561;28;20431;-81
2022/04/19 14:45:02;;;;;;;5.57;2.90;;;;;;;;;;5022373;28;20432;-80
2022/04/19 14:47:28;;;;;;;3.47;2.33;;;;;;;;;;5020521;28;20423;-80
2022/04/19 14:49:55;;;;;;;3.10;2.00;;;;;;;;;;5017806;28;20912;-80
2022/04/19 14:52:22;;;;;;;3.35;2.30;;;;;;;;;;5020828;28;20830;-81
2022/04/19 14:54:51;;;;;;;3.72;2.70;;;;;;;;;;5022446;28;20548;-80
2022/04/19 14:57:18;;;;;;;5.05;2.70;;;;;;;;;;5022083;28;20423;-80
2022/04/19 14:59:45;;;;;;;2.30;2.10;;;;;;;;;;5025478;28;20458;-78
2022/04/19 15:02:12;;;;;;;4.20;2.30;;;;;;;;;;5022558;28;20456;-80
2022/04/19 15:04:38;;;;;;;2.17;1.80;;;;;;;;;;5023680;28;20426;-80
2022/04/19 15:07:05;;;;;;;2.83;2.20;;;;;;;;;;5025598;28;20448;-79
2022/04/19 15:09:31;;;;;;;2.10;1.70;;;;;;;;;;5020343;28;20434;-80
2022/04/19 15:11:59;;;;;;;2.50;1.60;;;;;;;;;;5024936;28;20434;-80
2022/04/19 15:14:26;;;;;;;2.80;1.70;;;;;;;;;;5020493;28;20426;-80
2022/04/19 15:16:53;;;;;;;2.80;1.60;;;;;;;;;;5025131;28;20423;-80
2022/04/19 15:19:19;;;;;;;3.30;1.80;;;;;;;;;;5025409;28;20504;-80
2022/04/19 15:21:46;;;;;;;2.92;2.20;;;;;;;;;;5025387;28;20482;-80
2022/04/19 15:24:12;;;;;;;2.83;2.00;;;;;;;;;;5023790;28;20421;-81
2022/04/19 15:26:38;;;;;;;1.50;1.40;;;;;;;;;;5021381;28;20949;-80
2022/04/19 15:29:06;;;;;;;2.10;1.20;;;;;;;;;;5023676;28;20500;-80
2022/04/19 15:31:33;;;;;;;2.08;1.80;;;;;;;;;;5023355;28;20437;-79
2022/04/19 15:33:59;;;;;;;2.47;1.73;;;;;;;;;;5025598;28;20468;-80
2022/04/19 15:36:26;;;;;;;3.30;1.50;;;;;;;;;;5026105;28;20416;-80
2022/04/19 15:38:52;;;;;;;3.40;1.73;;;;;;;;;;5023049;28;20548;-81